sensor_id;sensor_type;location;lat;lon;timestamp;temperature;humidity
76607;DHT22;65498;50.916;4.698;2023-02-01T00:08:54;22.20;42.60
76607;DHT22;65498;50.916;4.698;2023-02-01T00:11:23;22.20;42.60
76607;DHT22;65498;50.916;4.698;2023-02-01T00:13:51;22.20;42.50
76607;DHT22;65498;50.916;4.698;2023-02-01T00:16:22;22.20;42.50
76607;DHT22;65498;50.916;4.698;2023-02-01T00:18:51;22.20;42.90
76607;DHT22;65498;50.916;4.698;2023-02-01T00:21:21;22.00;43.40
76607;DHT22;65498;50.916;4.698;2023-02-01T00:23:47;21.80;43.50
76607;DHT22;65498;50.916;4.698;2023-02-01T00:26:17;21.80;43.60
76607;DHT22;65498;50.916;4.698;2023-02-01T00:28:45;21.70;43.70
76607;DHT22;65498;50.916;4.698;2023-02-01T00:31:12;21.70;43.80
76607;DHT22;65498;50.916;4.698;2023-02-01T00:33:41;21.70;43.90
76607;DHT22;65498;50.916;4.698;2023-02-01T00:36:09;21.70;44.50
76607;DHT22;65498;50.916;4.698;2023-02-01T00:38:38;21.60;44.00
76607;DHT22;65498;50.916;4.698;2023-02-01T00:41:11;21.60;44.70
76607;DHT22;65498;50.916;4.698;2023-02-01T00:43:40;21.60;44.20
76607;DHT22;65498;50.916;4.698;2023-02-01T00:46:08;21.50;44.10
76607;DHT22;65498;50.916;4.698;2023-02-01T00:48:36;21.50;44.10
76607;DHT22;65498;50.916;4.698;2023-02-01T00:51:10;21.50;44.10
76607;DHT22;65498;50.916;4.698;2023-02-01T00:53:37;21.50;44.10
76607;DHT22;65498;50.916;4.698;2023-02-01T00:56:06;21.50;44.00
76607;DHT22;65498;50.916;4.698;2023-02-01T00:58:34;21.50;44.10
76607;DHT22;65498;50.916;4.698;2023-02-01T01:01:06;21.50;44.10
76607;DHT22;65498;50.916;4.698;2023-02-01T01:03:37;21.50;44.30
76607;DHT22;65498;50.916;4.698;2023-02-01T01:06:08;21.50;44.10
76607;DHT22;65498;50.916;4.698;2023-02-01T01:08:36;21.50;44.10
76607;DHT22;65498;50.916;4.698;2023-02-01T01:11:16;21.60;44.20
76607;DHT22;65498;50.916;4.698;2023-02-01T01:13:41;21.70;43.80
76607;DHT22;65498;50.916;4.698;2023-02-01T01:16:10;21.80;43.70
76607;DHT22;65498;50.916;4.698;2023-02-01T01:18:38;21.70;43.60
76607;DHT22;65498;50.916;4.698;2023-02-01T01:21:07;21.60;43.70
76607;DHT22;65498;50.916;4.698;2023-02-01T01:23:35;21.60;43.70
76607;DHT22;65498;50.916;4.698;2023-02-01T01:26:14;21.50;43.60
76607;DHT22;65498;50.916;4.698;2023-02-01T01:28:42;21.50;43.60
76607;DHT22;65498;50.916;4.698;2023-02-01T01:31:15;21.40;43.70
76607;DHT22;65498;50.916;4.698;2023-02-01T01:33:42;21.40;43.70
76607;DHT22;65498;50.916;4.698;2023-02-01T01:36:11;21.40;43.80
76607;DHT22;65498;50.916;4.698;2023-02-01T01:38:40;21.30;43.80
76607;DHT22;65498;50.916;4.698;2023-02-01T01:41:09;21.30;44.00
76607;DHT22;65498;50.916;4.698;2023-02-01T01:43:58;21.30;44.20
76607;DHT22;65498;50.916;4.698;2023-02-01T01:49:06;21.60;43.40
76607;DHT22;65498;50.916;4.698;2023-02-01T01:51:32;21.50;43.50
76607;DHT22;65498;50.916;4.698;2023-02-01T01:54:05;21.50;43.60
76607;DHT22;65498;50.916;4.698;2023-02-01T01:56:32;21.50;43.40
76607;DHT22;65498;50.916;4.698;2023-02-01T01:59:01;21.50;43.70
76607;DHT22;65498;50.916;4.698;2023-02-01T02:01:29;21.60;43.60
76607;DHT22;65498;50.916;4.698;2023-02-01T02:03:58;21.70;43.20
76607;DHT22;65498;50.916;4.698;2023-02-01T02:06:44;21.70;42.80
76607;DHT22;65498;50.916;4.698;2023-02-01T02:09:13;21.50;43.20
76607;DHT22;65498;50.916;4.698;2023-02-01T02:11:41;21.60;43.80
76607;DHT22;65498;50.916;4.698;2023-02-01T02:14:11;21.70;43.00
76607;DHT22;65498;50.916;4.698;2023-02-01T02:17:03;21.60;42.80
76607;DHT22;65498;50.916;4.698;2023-02-01T02:19:59;21.60;43.10
76607;DHT22;65498;50.916;4.698;2023-02-01T02:27:48;21.60;42.90
76607;DHT22;65498;50.916;4.698;2023-02-01T02:38:38;21.50;43.00
76607;DHT22;65498;50.916;4.698;2023-02-01T02:41:16;21.60;43.10
76607;DHT22;65498;50.916;4.698;2023-02-01T02:44:05;21.60;42.70
76607;DHT22;65498;50.916;4.698;2023-02-01T02:46:51;21.60;42.60
76607;DHT22;65498;50.916;4.698;2023-02-01T02:49:56;21.50;42.60
76607;DHT22;65498;50.916;4.698;2023-02-01T02:52:45;21.60;42.40
76607;DHT22;65498;50.916;4.698;2023-02-01T02:55:31;21.50;42.70
76607;DHT22;65498;50.916;4.698;2023-02-01T02:58:00;21.60;42.60
76607;DHT22;65498;50.916;4.698;2023-02-01T03:00:46;21.60;42.30
76607;DHT22;65498;50.916;4.698;2023-02-01T03:03:37;21.50;42.60
76607;DHT22;65498;50.916;4.698;2023-02-01T03:06:24;21.60;42.50
76607;DHT22;65498;50.916;4.698;2023-02-01T03:08:52;21.50;42.20
76607;DHT22;65498;50.916;4.698;2023-02-01T03:11:22;21.50;42.40
76607;DHT22;65498;50.916;4.698;2023-02-01T03:13:55;21.60;42.30
76607;DHT22;65498;50.916;4.698;2023-02-01T03:16:32;21.50;42.20
76607;DHT22;65498;50.916;4.698;2023-02-01T03:19:15;21.50;42.40
76607;DHT22;65498;50.916;4.698;2023-02-01T03:24:26;21.60;41.90
76607;DHT22;65498;50.916;4.698;2023-02-01T03:26:56;21.50;42.40
76607;DHT22;65498;50.916;4.698;2023-02-01T03:29:27;21.60;42.70
76607;DHT22;65498;50.916;4.698;2023-02-01T03:31:56;21.60;42.00
76607;DHT22;65498;50.916;4.698;2023-02-01T03:34:23;21.50;42.40
76607;DHT22;65498;50.916;4.698;2023-02-01T03:37:16;21.60;42.30
76607;DHT22;65498;50.916;4.698;2023-02-01T03:39:29;21.60;42.00
76607;DHT22;65498;50.916;4.698;2023-02-01T03:42:02;21.50;42.40
76607;DHT22;65498;50.916;4.698;2023-02-01T03:44:41;21.50;42.20
76607;DHT22;65498;50.916;4.698;2023-02-01T03:49:41;21.50;42.10
76607;DHT22;65498;50.916;4.698;2023-02-01T03:52:15;21.50;42.30
76607;DHT22;65498;50.916;4.698;2023-02-01T03:54:44;21.60;41.80
76607;DHT22;65498;50.916;4.698;2023-02-01T03:57:14;21.40;42.00
76607;DHT22;65498;50.916;4.698;2023-02-01T03:59:42;21.50;42.20
76607;DHT22;65498;50.916;4.698;2023-02-01T04:02:09;21.60;41.90
76607;DHT22;65498;50.916;4.698;2023-02-01T04:04:37;21.60;41.50
76607;DHT22;65498;50.916;4.698;2023-02-01T04:07:05;21.50;41.40
76607;DHT22;65498;50.916;4.698;2023-02-01T04:09:32;21.50;42.00
76607;DHT22;65498;50.916;4.698;2023-02-01T04:12:00;21.50;42.50
76607;DHT22;65498;50.916;4.698;2023-02-01T04:14:28;21.70;41.70
76607;DHT22;65498;50.916;4.698;2023-02-01T04:16:56;21.50;41.30
76607;DHT22;65498;50.916;4.698;2023-02-01T04:19:23;21.50;41.80
76607;DHT22;65498;50.916;4.698;2023-02-01T04:21:51;21.50;41.80
76607;DHT22;65498;50.916;4.698;2023-02-01T04:24:18;21.60;41.70
76607;DHT22;65498;50.916;4.698;2023-02-01T04:26:46;21.50;41.30
76607;DHT22;65498;50.916;4.698;2023-02-01T04:29:14;21.50;41.60
76607;DHT22;65498;50.916;4.698;2023-02-01T04:31:41;21.60;41.60
76607;DHT22;65498;50.916;4.698;2023-02-01T04:34:09;21.50;41.30
76607;DHT22;65498;50.916;4.698;2023-02-01T04:36:36;21.50;41.60
76607;DHT22;65498;50.916;4.698;2023-02-01T04:39:04;21.50;41.40
76607;DHT22;65498;50.916;4.698;2023-02-01T04:41:31;21.40;41.30
76607;DHT22;65498;50.916;4.698;2023-02-01T04:43:59;21.40;41.70
76607;DHT22;65498;50.916;4.698;2023-02-01T04:46:26;21.50;41.60
76607;DHT22;65498;50.916;4.698;2023-02-01T04:48:54;21.50;41.20
76607;DHT22;65498;50.916;4.698;2023-02-01T04:51:21;21.40;41.70
76607;DHT22;65498;50.916;4.698;2023-02-01T04:53:49;21.50;41.30
76607;DHT22;65498;50.916;4.698;2023-02-01T04:56:16;21.60;41.20
76607;DHT22;65498;50.916;4.698;2023-02-01T04:58:44;21.40;41.10
76607;DHT22;65498;50.916;4.698;2023-02-01T05:01:11;21.40;41.50
76607;DHT22;65498;50.916;4.698;2023-02-01T05:03:39;21.60;41.40
76607;DHT22;65498;50.916;4.698;2023-02-01T05:06:07;21.50;41.10
76607;DHT22;65498;50.916;4.698;2023-02-01T05:08:34;21.50;41.40
76607;DHT22;65498;50.916;4.698;2023-02-01T05:11:02;21.50;41.20
76607;DHT22;65498;50.916;4.698;2023-02-01T05:13:30;21.40;41.10
76607;DHT22;65498;50.916;4.698;2023-02-01T05:16:16;21.40;41.50
76607;DHT22;65498;50.916;4.698;2023-02-01T05:18:44;21.50;41.40
76607;DHT22;65498;50.916;4.698;2023-02-01T05:21:12;21.40;41.20
76607;DHT22;65498;50.916;4.698;2023-02-01T05:23:39;21.40;41.40
76607;DHT22;65498;50.916;4.698;2023-02-01T05:26:25;21.40;41.10
76607;DHT22;65498;50.916;4.698;2023-02-01T05:28:53;21.40;41.00
76607;DHT22;65498;50.916;4.698;2023-02-01T05:31:21;21.30;41.20
76607;DHT22;65498;50.916;4.698;2023-02-01T05:33:49;21.40;41.30
76607;DHT22;65498;50.916;4.698;2023-02-01T05:36:17;21.50;41.00
76607;DHT22;65498;50.916;4.698;2023-02-01T05:38:44;21.40;40.70
76607;DHT22;65498;50.916;4.698;2023-02-01T05:41:12;21.40;41.20
76607;DHT22;65498;50.916;4.698;2023-02-01T05:43:39;21.40;40.80
76607;DHT22;65498;50.916;4.698;2023-02-01T05:46:07;21.40;40.60
76607;DHT22;65498;50.916;4.698;2023-02-01T05:48:36;21.30;41.10
76607;DHT22;65498;50.916;4.698;2023-02-01T05:51:04;21.40;40.80
76607;DHT22;65498;50.916;4.698;2023-02-01T05:53:32;21.50;40.80
76607;DHT22;65498;50.916;4.698;2023-02-01T05:55:59;21.40;40.40
76607;DHT22;65498;50.916;4.698;2023-02-01T05:58:27;21.40;40.90
76607;DHT22;65498;50.916;4.698;2023-02-01T06:00:55;21.40;40.50
76607;DHT22;65498;50.916;4.698;2023-02-01T06:03:22;21.50;40.30
76607;DHT22;65498;50.916;4.698;2023-02-01T06:05:50;21.30;40.60
76607;DHT22;65498;50.916;4.698;2023-02-01T06:08:17;21.40;41.00
76607;DHT22;65498;50.916;4.698;2023-02-01T06:10:45;21.50;40.50
76607;DHT22;65498;50.916;4.698;2023-02-01T06:13:12;21.40;40.30
76607;DHT22;65498;50.916;4.698;2023-02-01T06:15:40;21.30;40.80
76607;DHT22;65498;50.916;4.698;2023-02-01T06:18:09;21.40;40.40
76607;DHT22;65498;50.916;4.698;2023-02-01T06:20:37;21.50;40.10
76607;DHT22;65498;50.916;4.698;2023-02-01T06:23:04;21.30;40.40
76607;DHT22;65498;50.916;4.698;2023-02-01T06:25:33;21.30;40.30
76607;DHT22;65498;50.916;4.698;2023-02-01T06:28:01;21.40;40.80
76607;DHT22;65498;50.916;4.698;2023-02-01T06:30:29;21.50;40.10
76607;DHT22;65498;50.916;4.698;2023-02-01T06:32:57;21.30;40.60
76607;DHT22;65498;50.916;4.698;2023-02-01T06:35:24;21.30;40.40
76607;DHT22;65498;50.916;4.698;2023-02-01T06:37:52;21.40;40.20
76607;DHT22;65498;50.916;4.698;2023-02-01T06:40:20;21.30;39.90
76607;DHT22;65498;50.916;4.698;2023-02-01T06:42:48;21.30;40.40
76607;DHT22;65498;50.916;4.698;2023-02-01T06:45:16;21.40;40.90
76607;DHT22;65498;50.916;4.698;2023-02-01T06:47:44;21.40;39.90
76607;DHT22;65498;50.916;4.698;2023-02-01T06:50:11;21.30;40.50
76607;DHT22;65498;50.916;4.698;2023-02-01T06:52:39;21.30;40.30
76607;DHT22;65498;50.916;4.698;2023-02-01T06:55:07;21.40;40.20
76607;DHT22;65498;50.916;4.698;2023-02-01T06:57:35;21.30;40.10
76607;DHT22;65498;50.916;4.698;2023-02-01T07:00:04;21.30;40.50
76607;DHT22;65498;50.916;4.698;2023-02-01T07:02:32;21.40;40.20
76607;DHT22;65498;50.916;4.698;2023-02-01T07:04:59;21.40;39.90
76607;DHT22;65498;50.916;4.698;2023-02-01T07:07:27;21.30;40.30
76607;DHT22;65498;50.916;4.698;2023-02-01T07:09:54;21.30;40.40
76607;DHT22;65498;50.916;4.698;2023-02-01T07:12:22;21.40;40.10
76607;DHT22;65498;50.916;4.698;2023-02-01T07:14:49;21.30;39.90
76607;DHT22;65498;50.916;4.698;2023-02-01T07:17:17;21.30;40.30
76607;DHT22;65498;50.916;4.698;2023-02-01T07:19:44;21.40;40.00
76607;DHT22;65498;50.916;4.698;2023-02-01T07:22:12;21.40;39.80
76607;DHT22;65498;50.916;4.698;2023-02-01T07:24:40;21.30;40.20
76607;DHT22;65498;50.916;4.698;2023-02-01T07:27:07;21.30;40.20
76607;DHT22;65498;50.916;4.698;2023-02-01T07:29:35;21.40;39.90
76607;DHT22;65498;50.916;4.698;2023-02-01T07:32:02;21.40;39.80
76607;DHT22;65498;50.916;4.698;2023-02-01T07:34:30;21.30;39.90
76607;DHT22;65498;50.916;4.698;2023-02-01T07:36:57;21.30;40.00
76607;DHT22;65498;50.916;4.698;2023-02-01T07:39:25;21.40;39.70
76607;DHT22;65498;50.916;4.698;2023-02-01T07:41:54;21.30;39.70
76607;DHT22;65498;50.916;4.698;2023-02-01T07:44:23;21.30;39.90
76607;DHT22;65498;50.916;4.698;2023-02-01T07:46:50;21.40;39.90
76607;DHT22;65498;50.916;4.698;2023-02-01T07:49:18;21.40;39.50
76607;DHT22;65498;50.916;4.698;2023-02-01T07:51:45;21.50;39.50
76607;DHT22;65498;50.916;4.698;2023-02-01T07:54:13;21.50;39.20
76607;DHT22;65498;50.916;4.698;2023-02-01T07:56:40;21.50;40.00
76607;DHT22;65498;50.916;4.698;2023-02-01T07:59:08;21.50;39.20
76607;DHT22;65498;50.916;4.698;2023-02-01T08:01:37;21.50;39.20
76607;DHT22;65498;50.916;4.698;2023-02-01T08:04:04;21.50;39.20
76607;DHT22;65498;50.916;4.698;2023-02-01T08:06:33;21.60;39.20
76607;DHT22;65498;50.916;4.698;2023-02-01T08:09:02;21.60;39.20
76607;DHT22;65498;50.916;4.698;2023-02-01T08:11:30;21.60;39.10
76607;DHT22;65498;50.916;4.698;2023-02-01T08:13:58;21.60;39.10
76607;DHT22;65498;50.916;4.698;2023-02-01T08:16:26;21.60;39.20
76607;DHT22;65498;50.916;4.698;2023-02-01T08:18:54;21.60;39.10
76607;DHT22;65498;50.916;4.698;2023-02-01T08:21:24;21.60;38.90
76607;DHT22;65498;50.916;4.698;2023-02-01T08:23:52;21.60;38.80
76607;DHT22;65498;50.916;4.698;2023-02-01T08:26:24;21.60;38.80
76607;DHT22;65498;50.916;4.698;2023-02-01T08:28:58;21.70;38.80
76607;DHT22;65498;50.916;4.698;2023-02-01T08:31:27;21.70;38.70
76607;DHT22;65498;50.916;4.698;2023-02-01T08:33:58;21.70;38.70
76607;DHT22;65498;50.916;4.698;2023-02-01T08:36:27;21.60;38.60
76607;DHT22;65498;50.916;4.698;2023-02-01T08:38:55;21.60;38.90
76607;DHT22;65498;50.916;4.698;2023-02-01T08:41:25;21.70;38.80
76607;DHT22;65498;50.916;4.698;2023-02-01T08:43:53;21.70;38.60
76607;DHT22;65498;50.916;4.698;2023-02-01T08:46:22;21.70;38.60
76607;DHT22;65498;50.916;4.698;2023-02-01T08:48:50;21.70;38.90
76607;DHT22;65498;50.916;4.698;2023-02-01T08:51:20;21.70;38.80
76607;DHT22;65498;50.916;4.698;2023-02-01T08:53:47;21.70;38.70
76607;DHT22;65498;50.916;4.698;2023-02-01T08:56:17;21.70;38.90
76607;DHT22;65498;50.916;4.698;2023-02-01T08:58:44;21.70;38.90
76607;DHT22;65498;50.916;4.698;2023-02-01T09:01:14;21.70;39.00
76607;DHT22;65498;50.916;4.698;2023-02-01T09:03:42;21.70;38.90
76607;DHT22;65498;50.916;4.698;2023-02-01T09:06:11;21.70;38.90
76607;DHT22;65498;50.916;4.698;2023-02-01T09:08:39;21.70;39.00
76607;DHT22;65498;50.916;4.698;2023-02-01T09:11:10;21.70;39.00
76607;DHT22;65498;50.916;4.698;2023-02-01T09:13:37;21.70;39.10
76607;DHT22;65498;50.916;4.698;2023-02-01T09:16:05;21.70;39.30
76607;DHT22;65498;50.916;4.698;2023-02-01T09:18:33;21.70;39.20
76607;DHT22;65498;50.916;4.698;2023-02-01T09:21:07;21.60;39.10
76607;DHT22;65498;50.916;4.698;2023-02-01T09:23:32;21.70;39.80
76607;DHT22;65498;50.916;4.698;2023-02-01T09:26:01;21.60;39.20
76607;DHT22;65498;50.916;4.698;2023-02-01T09:28:29;21.60;39.20
76607;DHT22;65498;50.916;4.698;2023-02-01T09:31:00;21.70;39.10
76607;DHT22;65498;50.916;4.698;2023-02-01T09:33:29;21.70;39.10
76607;DHT22;65498;50.916;4.698;2023-02-01T09:36:02;21.70;39.00
76607;DHT22;65498;50.916;4.698;2023-02-01T09:38:30;21.70;39.00
76607;DHT22;65498;50.916;4.698;2023-02-01T09:40:58;21.80;38.60
76607;DHT22;65498;50.916;4.698;2023-02-01T09:43:41;21.90;38.40
76607;DHT22;65498;50.916;4.698;2023-02-01T09:46:27;21.90;38.30
76607;DHT22;65498;50.916;4.698;2023-02-01T09:48:58;22.00;38.50
76607;DHT22;65498;50.916;4.698;2023-02-01T09:51:33;22.00;38.60
76607;DHT22;65498;50.916;4.698;2023-02-01T09:54:18;22.00;38.70
76607;DHT22;65498;50.916;4.698;2023-02-01T10:02:21;22.00;38.30
76607;DHT22;65498;50.916;4.698;2023-02-01T10:04:52;22.00;38.50
76607;DHT22;65498;50.916;4.698;2023-02-01T10:10:15;22.10;38.20
76607;DHT22;65498;50.916;4.698;2023-02-01T10:13:04;22.10;38.20
76607;DHT22;65498;50.916;4.698;2023-02-01T10:23:50;22.20;38.60
76607;DHT22;65498;50.916;4.698;2023-02-01T10:26:19;22.20;37.90
76607;DHT22;65498;50.916;4.698;2023-02-01T10:28:52;22.20;37.70
76607;DHT22;65498;50.916;4.698;2023-02-01T10:31:23;22.20;37.60
76607;DHT22;65498;50.916;4.698;2023-02-01T10:33:58;22.20;37.60
76607;DHT22;65498;50.916;4.698;2023-02-01T10:36:34;22.30;37.50
76607;DHT22;65498;50.916;4.698;2023-02-01T10:39:04;22.30;37.60
76607;DHT22;65498;50.916;4.698;2023-02-01T10:41:36;22.20;37.60
76607;DHT22;65498;50.916;4.698;2023-02-01T10:44:11;22.30;37.50
76607;DHT22;65498;50.916;4.698;2023-02-01T10:46:38;22.40;37.70
76607;DHT22;65498;50.916;4.698;2023-02-01T10:49:11;22.30;37.70
76607;DHT22;65498;50.916;4.698;2023-02-01T10:54:18;22.30;37.90
76607;DHT22;65498;50.916;4.698;2023-02-01T10:56:47;22.40;37.70
76607;DHT22;65498;50.916;4.698;2023-02-01T10:59:18;22.40;37.60
76607;DHT22;65498;50.916;4.698;2023-02-01T11:01:47;22.40;37.70
76607;DHT22;65498;50.916;4.698;2023-02-01T11:04:17;22.40;37.70
76607;DHT22;65498;50.916;4.698;2023-02-01T11:07:40;22.50;37.70
76607;DHT22;65498;50.916;4.698;2023-02-01T11:09:24;22.40;37.80
76607;DHT22;65498;50.916;4.698;2023-02-01T11:11:56;22.30;37.70
76607;DHT22;65498;50.916;4.698;2023-02-01T11:14:35;22.30;37.80
76607;DHT22;65498;50.916;4.698;2023-02-01T11:17:26;22.30;37.90
76607;DHT22;65498;50.916;4.698;2023-02-01T11:19:47;22.40;37.70
76607;DHT22;65498;50.916;4.698;2023-02-01T11:22:15;22.30;37.80
76607;DHT22;65498;50.916;4.698;2023-02-01T11:24:45;22.30;37.90
76607;DHT22;65498;50.916;4.698;2023-02-01T11:27:16;22.30;37.90
76607;DHT22;65498;50.916;4.698;2023-02-01T11:29:46;22.30;37.70
76607;DHT22;65498;50.916;4.698;2023-02-01T11:32:16;22.40;37.70
76607;DHT22;65498;50.916;4.698;2023-02-01T11:34:48;22.50;37.50
76607;DHT22;65498;50.916;4.698;2023-02-01T11:37:28;22.40;37.50
76607;DHT22;65498;50.916;4.698;2023-02-01T11:40:08;22.40;37.50
76607;DHT22;65498;50.916;4.698;2023-02-01T11:42:31;22.40;38.10
76607;DHT22;65498;50.916;4.698;2023-02-01T11:45:24;22.40;37.40
76607;DHT22;65498;50.916;4.698;2023-02-01T11:47:51;22.40;37.30
76607;DHT22;65498;50.916;4.698;2023-02-01T11:56:23;22.50;37.20
76607;DHT22;65498;50.916;4.698;2023-02-01T11:59:05;22.50;37.30
76607;DHT22;65498;50.916;4.698;2023-02-01T12:01:57;22.40;37.20
76607;DHT22;65498;50.916;4.698;2023-02-01T12:17:57;22.50;38.60
76607;DHT22;65498;50.916;4.698;2023-02-01T12:25:53;22.50;39.00
76607;DHT22;65498;50.916;4.698;2023-02-01T12:31:04;22.40;39.00
76607;DHT22;65498;50.916;4.698;2023-02-01T12:39:05;22.40;38.60
76607;DHT22;65498;50.916;4.698;2023-02-01T12:46:53;22.50;37.80
76607;DHT22;65498;50.916;4.698;2023-02-01T12:49:34;22.50;37.70
76607;DHT22;65498;50.916;4.698;2023-02-01T12:51:59;22.50;37.50
76607;DHT22;65498;50.916;4.698;2023-02-01T12:54:47;22.60;37.40
76607;DHT22;65498;50.916;4.698;2023-02-01T12:57:17;22.60;38.10
76607;DHT22;65498;50.916;4.698;2023-02-01T13:02:38;22.50;37.20
76607;DHT22;65498;50.916;4.698;2023-02-01T13:05:22;22.50;37.00
76607;DHT22;65498;50.916;4.698;2023-02-01T13:07:59;22.60;37.00
76607;DHT22;65498;50.916;4.698;2023-02-01T13:10:45;22.60;37.00
76607;DHT22;65498;50.916;4.698;2023-02-01T13:13:19;22.70;37.00
76607;DHT22;65498;50.916;4.698;2023-02-01T13:18:28;22.60;36.90
76607;DHT22;65498;50.916;4.698;2023-02-01T13:21:10;22.60;36.90
76607;DHT22;65498;50.916;4.698;2023-02-01T13:23:40;22.60;37.00
76607;DHT22;65498;50.916;4.698;2023-02-01T13:26:08;22.70;37.00
76607;DHT22;65498;50.916;4.698;2023-02-01T13:28:57;22.60;37.20
76607;DHT22;65498;50.916;4.698;2023-02-01T13:34:39;22.50;37.60
76607;DHT22;65498;50.916;4.698;2023-02-01T13:42:59;22.40;38.10
76607;DHT22;65498;50.916;4.698;2023-02-01T13:45:31;22.50;38.10
76607;DHT22;65498;50.916;4.698;2023-02-01T13:48:02;22.50;38.10
76607;DHT22;65498;50.916;4.698;2023-02-01T13:50:32;22.50;37.80
76607;DHT22;65498;50.916;4.698;2023-02-01T13:55:41;22.60;37.80
76607;DHT22;65498;50.916;4.698;2023-02-01T13:58:17;22.60;37.80
76607;DHT22;65498;50.916;4.698;2023-02-01T14:00:44;22.60;38.00
76607;DHT22;65498;50.916;4.698;2023-02-01T14:03:17;22.60;38.00
76607;DHT22;65498;50.916;4.698;2023-02-01T14:08:35;22.70;38.40
76607;DHT22;65498;50.916;4.698;2023-02-01T14:10:57;22.70;38.50
76607;DHT22;65498;50.916;4.698;2023-02-01T14:26:47;22.30;36.70
76607;DHT22;65498;50.916;4.698;2023-02-01T14:29:37;22.30;36.60
76607;DHT22;65498;50.916;4.698;2023-02-01T14:32:22;22.30;36.60
76607;DHT22;65498;50.916;4.698;2023-02-01T14:34:53;22.30;36.70
76607;DHT22;65498;50.916;4.698;2023-02-01T14:37:29;22.30;36.80
76607;DHT22;65498;50.916;4.698;2023-02-01T14:40:05;22.30;36.80
76607;DHT22;65498;50.916;4.698;2023-02-01T14:42:44;22.40;36.70
76607;DHT22;65498;50.916;4.698;2023-02-01T15:04:12;22.50;39.90
76607;DHT22;65498;50.916;4.698;2023-02-01T15:06:49;22.50;40.30
76607;DHT22;65498;50.916;4.698;2023-02-01T15:09:31;22.50;40.20
76607;DHT22;65498;50.916;4.698;2023-02-01T15:12:04;22.40;40.10
76607;DHT22;65498;50.916;4.698;2023-02-01T15:14:47;22.40;39.90
76607;DHT22;65498;50.916;4.698;2023-02-01T15:17:23;22.40;39.70
76607;DHT22;65498;50.916;4.698;2023-02-01T15:20:00;22.40;40.40
76607;DHT22;65498;50.916;4.698;2023-02-01T15:22:25;22.50;39.80
76607;DHT22;65498;50.916;4.698;2023-02-01T15:24:55;22.50;39.50
76607;DHT22;65498;50.916;4.698;2023-02-01T15:27:23;22.50;39.20
76607;DHT22;65498;50.916;4.698;2023-02-01T15:29:51;22.50;39.60
76607;DHT22;65498;50.916;4.698;2023-02-01T15:32:37;22.50;39.10
76607;DHT22;65498;50.916;4.698;2023-02-01T15:35:05;22.50;39.00
76607;DHT22;65498;50.916;4.698;2023-02-01T15:37:35;22.50;38.80
76607;DHT22;65498;50.916;4.698;2023-02-01T15:42:53;22.40;38.70
76607;DHT22;65498;50.916;4.698;2023-02-01T15:45:28;22.40;39.00
76607;DHT22;65498;50.916;4.698;2023-02-01T15:47:57;22.30;39.10
76607;DHT22;65498;50.916;4.698;2023-02-01T15:50:27;22.30;39.10
76607;DHT22;65498;50.916;4.698;2023-02-01T15:52:56;22.30;39.00
76607;DHT22;65498;50.916;4.698;2023-02-01T15:55:38;22.40;38.80
76607;DHT22;65498;50.916;4.698;2023-02-01T15:58:17;22.40;38.80
76607;DHT22;65498;50.916;4.698;2023-02-01T16:00:48;22.50;38.70
76607;DHT22;65498;50.916;4.698;2023-02-01T16:06:11;22.50;38.60
76607;DHT22;65498;50.916;4.698;2023-02-01T16:08:48;22.50;38.70
76607;DHT22;65498;50.916;4.698;2023-02-01T16:11:16;22.40;38.70
76607;DHT22;65498;50.916;4.698;2023-02-01T16:13:42;22.40;38.70
76607;DHT22;65498;50.916;4.698;2023-02-01T16:16:10;22.50;38.60
76607;DHT22;65498;50.916;4.698;2023-02-01T16:18:39;22.50;38.60
76607;DHT22;65498;50.916;4.698;2023-02-01T16:21:08;22.40;38.60
76607;DHT22;65498;50.916;4.698;2023-02-01T16:23:36;22.50;38.50
76607;DHT22;65498;50.916;4.698;2023-02-01T16:26:04;22.50;38.50
76607;DHT22;65498;50.916;4.698;2023-02-01T16:28:33;22.40;38.60
76607;DHT22;65498;50.916;4.698;2023-02-01T16:31:01;22.40;38.60
76607;DHT22;65498;50.916;4.698;2023-02-01T16:33:28;22.50;38.60
76607;DHT22;65498;50.916;4.698;2023-02-01T16:35:57;22.50;38.70
76607;DHT22;65498;50.916;4.698;2023-02-01T16:38:27;22.40;38.70
76607;DHT22;65498;50.916;4.698;2023-02-01T16:40:54;22.40;39.10
76607;DHT22;65498;50.916;4.698;2023-02-01T16:43:24;22.40;38.80
76607;DHT22;65498;50.916;4.698;2023-02-01T16:45:54;22.50;38.90
76607;DHT22;65498;50.916;4.698;2023-02-01T16:48:30;22.50;39.00
76607;DHT22;65498;50.916;4.698;2023-02-01T16:50:58;22.40;38.90
76607;DHT22;65498;50.916;4.698;2023-02-01T16:53:28;22.50;39.10
76607;DHT22;65498;50.916;4.698;2023-02-01T16:55:56;22.50;39.10
76607;DHT22;65498;50.916;4.698;2023-02-01T16:58:26;22.50;39.10
76607;DHT22;65498;50.916;4.698;2023-02-01T17:00:54;22.60;39.30
76607;DHT22;65498;50.916;4.698;2023-02-01T17:03:22;22.60;39.30
76607;DHT22;65498;50.916;4.698;2023-02-01T17:05:55;22.60;39.40
76607;DHT22;65498;50.916;4.698;2023-02-01T17:08:41;22.60;39.60
76607;DHT22;65498;50.916;4.698;2023-02-01T17:10:54;22.70;39.40
76607;DHT22;65498;50.916;4.698;2023-02-01T17:13:21;22.70;39.40
76607;DHT22;65498;50.916;4.698;2023-02-01T17:15:57;22.70;40.20
76607;DHT22;65498;50.916;4.698;2023-02-01T17:18:27;22.70;39.60
76607;DHT22;65498;50.916;4.698;2023-02-01T17:21:00;22.70;40.00
76607;DHT22;65498;50.916;4.698;2023-02-01T17:23:29;22.70;39.90
76607;DHT22;65498;50.916;4.698;2023-02-01T17:25:57;22.70;40.30
76607;DHT22;65498;50.916;4.698;2023-02-01T17:28:24;22.70;41.10
76607;DHT22;65498;50.916;4.698;2023-02-01T17:30:52;22.70;41.70
76607;DHT22;65498;50.916;4.698;2023-02-01T17:33:33;22.70;41.00
76607;DHT22;65498;50.916;4.698;2023-02-01T17:35:57;22.70;41.10
76607;DHT22;65498;50.916;4.698;2023-02-01T17:38:25;22.70;41.30
76607;DHT22;65498;50.916;4.698;2023-02-01T17:40:53;22.70;41.00
76607;DHT22;65498;50.916;4.698;2023-02-01T17:43:24;22.70;40.90
76607;DHT22;65498;50.916;4.698;2023-02-01T17:46:20;22.70;40.90
76607;DHT22;65498;50.916;4.698;2023-02-01T17:48:34;22.70;40.90
76607;DHT22;65498;50.916;4.698;2023-02-01T17:51:01;22.70;40.80
76607;DHT22;65498;50.916;4.698;2023-02-01T17:53:29;22.70;40.80
76607;DHT22;65498;50.916;4.698;2023-02-01T17:55:58;22.70;40.60
76607;DHT22;65498;50.916;4.698;2023-02-01T17:58:27;22.70;40.50
76607;DHT22;65498;50.916;4.698;2023-02-01T18:00:57;22.80;40.40
76607;DHT22;65498;50.916;4.698;2023-02-01T18:03:27;22.80;40.30
76607;DHT22;65498;50.916;4.698;2023-02-01T18:05:57;22.80;40.40
76607;DHT22;65498;50.916;4.698;2023-02-01T18:08:26;22.70;40.20
76607;DHT22;65498;50.916;4.698;2023-02-01T18:10:57;22.70;40.20
76607;DHT22;65498;50.916;4.698;2023-02-01T18:13:29;22.70;40.20
76607;DHT22;65498;50.916;4.698;2023-02-01T18:15:57;22.70;40.20
76607;DHT22;65498;50.916;4.698;2023-02-01T18:18:29;22.70;40.30